sensor_id;sensor_type;location;lat;lon;timestamp;temperature;humidity
31799;DHT22;18374;51.136;3.502;2022-09-09T00:00:17;15.80;99.90
31799;DHT22;18374;51.136;3.502;2022-09-09T00:02:53;15.80;99.90
31799;DHT22;18374;51.136;3.502;2022-09-09T00:08:49;15.70;99.90
31799;DHT22;18374;51.136;3.502;2022-09-09T00:11:30;15.70;99.90
31799;DHT22;18374;51.136;3.502;2022-09-09T00:16:51;15.60;99.90
31799;DHT22;18374;51.136;3.502;2022-09-09T00:19:28;15.70;99.90
31799;DHT22;18374;51.136;3.502;2022-09-09T00:22:17;15.60;99.90
31799;DHT22;18374;51.136;3.502;2022-09-09T00:24:55;15.60;99.90
31799;DHT22;18374;51.136;3.502;2022-09-09T00:29:57;15.60;99.90
31799;DHT22;18374;51.136;3.502;2022-09-09T00:32:29;15.50;99.90
31799;DHT22;18374;51.136;3.502;2022-09-09T00:35:10;15.60;99.90
31799;DHT22;18374;51.136;3.502;2022-09-09T00:37:48;15.60;99.90
31799;DHT22;18374;51.136;3.502;2022-09-09T00:40:34;15.50;99.90
31799;DHT22;18374;51.136;3.502;2022-09-09T00:43:27;15.50;99.90
31799;DHT22;18374;51.136;3.502;2022-09-09T00:49:34;15.50;99.90
31799;DHT22;18374;51.136;3.502;2022-09-09T00:55:17;15.50;99.90
31799;DHT22;18374;51.136;3.502;2022-09-09T00:57:52;15.40;99.90
31799;DHT22;18374;51.136;3.502;2022-09-09T01:00:24;15.40;99.90
31799;DHT22;18374;51.136;3.502;2022-09-09T01:03:00;15.40;99.90
31799;DHT22;18374;51.136;3.502;2022-09-09T01:05:44;15.40;99.90
31799;DHT22;18374;51.136;3.502;2022-09-09T01:14:53;15.40;99.90
31799;DHT22;18374;51.136;3.502;2022-09-09T01:17:34;15.40;99.90
31799;DHT22;18374;51.136;3.502;2022-09-09T01:20:28;15.30;99.90
31799;DHT22;18374;51.136;3.502;2022-09-09T01:23:34;15.30;99.90
31799;DHT22;18374;51.136;3.502;2022-09-09T01:26:36;15.30;99.90
31799;DHT22;18374;51.136;3.502;2022-09-09T01:29:15;15.30;99.90
31799;DHT22;18374;51.136;3.502;2022-09-09T01:34:33;15.30;99.90
31799;DHT22;18374;51.136;3.502;2022-09-09T01:37:06;15.30;99.90
31799;DHT22;18374;51.136;3.502;2022-09-09T01:39:40;15.30;99.90
31799;DHT22;18374;51.136;3.502;2022-09-09T01:42:14;15.30;99.90
31799;DHT22;18374;51.136;3.502;2022-09-09T01:44:43;15.30;99.90
31799;DHT22;18374;51.136;3.502;2022-09-09T01:47:11;15.30;99.90
31799;DHT22;18374;51.136;3.502;2022-09-09T01:49:54;15.20;99.90
31799;DHT22;18374;51.136;3.502;2022-09-09T01:52:26;15.20;99.90
31799;DHT22;18374;51.136;3.502;2022-09-09T01:54:54;15.20;99.90
31799;DHT22;18374;51.136;3.502;2022-09-09T01:58:11;15.20;99.90
31799;DHT22;18374;51.136;3.502;2022-09-09T02:01:06;15.30;99.90
31799;DHT22;18374;51.136;3.502;2022-09-09T02:04:41;15.20;99.90
31799;DHT22;18374;51.136;3.502;2022-09-09T02:10:10;15.30;99.90
31799;DHT22;18374;51.136;3.502;2022-09-09T02:12:56;15.20;99.90
31799;DHT22;18374;51.136;3.502;2022-09-09T02:16:39;15.30;99.90
31799;DHT22;18374;51.136;3.502;2022-09-09T02:19:02;15.30;99.90
31799;DHT22;18374;51.136;3.502;2022-09-09T02:21:47;15.30;99.90
31799;DHT22;18374;51.136;3.502;2022-09-09T02:24:16;15.30;99.90
31799;DHT22;18374;51.136;3.502;2022-09-09T02:26:53;15.30;99.90
31799;DHT22;18374;51.136;3.502;2022-09-09T02:29:27;15.30;99.90
31799;DHT22;18374;51.136;3.502;2022-09-09T02:32:01;15.30;99.90
31799;DHT22;18374;51.136;3.502;2022-09-09T02:34:37;15.30;99.90
31799;DHT22;18374;51.136;3.502;2022-09-09T02:37:09;15.30;99.90
31799;DHT22;18374;51.136;3.502;2022-09-09T02:39:41;15.30;99.90
31799;DHT22;18374;51.136;3.502;2022-09-09T02:42:13;15.30;99.90
31799;DHT22;18374;51.136;3.502;2022-09-09T02:44:44;15.30;99.90
31799;DHT22;18374;51.136;3.502;2022-09-09T02:50:04;15.30;99.90
31799;DHT22;18374;51.136;3.502;2022-09-09T02:58:21;15.30;99.90
31799;DHT22;18374;51.136;3.502;2022-09-09T03:01:00;15.30;99.90
31799;DHT22;18374;51.136;3.502;2022-09-09T03:03:31;15.30;99.90
31799;DHT22;18374;51.136;3.502;2022-09-09T03:06:02;15.30;99.90
31799;DHT22;18374;51.136;3.502;2022-09-09T03:08:30;15.30;99.90
31799;DHT22;18374;51.136;3.502;2022-09-09T03:11:00;15.30;99.90
31799;DHT22;18374;51.136;3.502;2022-09-09T03:13:31;15.30;99.90
31799;DHT22;18374;51.136;3.502;2022-09-09T03:15:59;15.30;99.90
31799;DHT22;18374;51.136;3.502;2022-09-09T03:18:29;15.30;99.90
31799;DHT22;18374;51.136;3.502;2022-09-09T03:20:57;15.30;99.90
31799;DHT22;18374;51.136;3.502;2022-09-09T03:23:27;15.30;99.90
31799;DHT22;18374;51.136;3.502;2022-09-09T03:25:57;15.30;99.90
31799;DHT22;18374;51.136;3.502;2022-09-09T03:28:35;15.30;99.90
31799;DHT22;18374;51.136;3.502;2022-09-09T03:31:04;15.30;99.90
31799;DHT22;18374;51.136;3.502;2022-09-09T03:33:38;15.30;99.90
31799;DHT22;18374;51.136;3.502;2022-09-09T03:36:08;15.30;99.90
31799;DHT22;18374;51.136;3.502;2022-09-09T03:38:38;15.30;99.90
31799;DHT22;18374;51.136;3.502;2022-09-09T03:41:06;15.30;99.90
31799;DHT22;18374;51.136;3.502;2022-09-09T03:43:35;15.30;99.90
31799;DHT22;18374;51.136;3.502;2022-09-09T03:46:04;15.30;99.90
31799;DHT22;18374;51.136;3.502;2022-09-09T03:48:32;15.30;99.90
31799;DHT22;18374;51.136;3.502;2022-09-09T03:51:00;15.30;99.90
31799;DHT22;18374;51.136;3.502;2022-09-09T03:53:31;15.30;99.90
31799;DHT22;18374;51.136;3.502;2022-09-09T03:55:59;15.30;99.90
31799;DHT22;18374;51.136;3.502;2022-09-09T03:58:29;15.30;99.90
31799;DHT22;18374;51.136;3.502;2022-09-09T04:01:07;15.30;99.90
31799;DHT22;18374;51.136;3.502;2022-09-09T04:03:39;15.30;99.90
31799;DHT22;18374;51.136;3.502;2022-09-09T04:06:09;15.30;99.90
31799;DHT22;18374;51.136;3.502;2022-09-09T04:08:41;15.30;99.90
31799;DHT22;18374;51.136;3.502;2022-09-09T04:11:09;15.30;99.90
31799;DHT22;18374;51.136;3.502;2022-09-09T04:13:38;15.30;99.90
31799;DHT22;18374;51.136;3.502;2022-09-09T04:16:10;15.30;99.90
31799;DHT22;18374;51.136;3.502;2022-09-09T04:18:42;15.30;99.90
31799;DHT22;18374;51.136;3.502;2022-09-09T04:21:10;15.30;99.90
31799;DHT22;18374;51.136;3.502;2022-09-09T04:23:40;15.20;99.90
31799;DHT22;18374;51.136;3.502;2022-09-09T04:26:08;15.30;99.90
31799;DHT22;18374;51.136;3.502;2022-09-09T04:28:37;15.20;99.90
31799;DHT22;18374;51.136;3.502;2022-09-09T04:31:19;15.20;99.90
31799;DHT22;18374;51.136;3.502;2022-09-09T04:33:53;15.20;99.90
31799;DHT22;18374;51.136;3.502;2022-09-09T04:36:22;15.20;99.90
31799;DHT22;18374;51.136;3.502;2022-09-09T04:38:54;15.10;99.90
31799;DHT22;18374;51.136;3.502;2022-09-09T04:41:22;15.10;99.90
31799;DHT22;18374;51.136;3.502;2022-09-09T04:44:16;15.10;99.90
31799;DHT22;18374;51.136;3.502;2022-09-09T04:46:44;15.20;99.90
31799;DHT22;18374;51.136;3.502;2022-09-09T04:49:13;15.10;99.90
31799;DHT22;18374;51.136;3.502;2022-09-09T04:51:43;15.10;99.90
31799;DHT22;18374;51.136;3.502;2022-09-09T04:54:10;15.10;99.90
31799;DHT22;18374;51.136;3.502;2022-09-09T04:56:43;15.10;99.90
31799;DHT22;18374;51.136;3.502;2022-09-09T04:59:12;15.00;99.90
31799;DHT22;18374;51.136;3.502;2022-09-09T05:01:44;15.00;99.90
31799;DHT22;18374;51.136;3.502;2022-09-09T05:04:13;15.00;99.90
31799;DHT22;18374;51.136;3.502;2022-09-09T05:06:43;15.00;99.90
31799;DHT22;18374;51.136;3.502;2022-09-09T05:09:12;15.00;99.90
31799;DHT22;18374;51.136;3.502;2022-09-09T05:11:40;15.00;99.90
31799;DHT22;18374;51.136;3.502;2022-09-09T05:14:15;15.00;99.90
31799;DHT22;18374;51.136;3.502;2022-09-09T05:16:44;15.00;99.90
31799;DHT22;18374;51.136;3.502;2022-09-09T05:19:12;15.00;99.90
31799;DHT22;18374;51.136;3.502;2022-09-09T05:21:44;15.00;99.90
31799;DHT22;18374;51.136;3.502;2022-09-09T05:24:15;15.00;99.90
31799;DHT22;18374;51.136;3.502;2022-09-09T05:26:45;15.00;99.90
31799;DHT22;18374;51.136;3.502;2022-09-09T05:29:13;15.00;99.90
31799;DHT22;18374;51.136;3.502;2022-09-09T05:31:41;15.00;99.90
31799;DHT22;18374;51.136;3.502;2022-09-09T05:34:13;15.00;99.90
31799;DHT22;18374;51.136;3.502;2022-09-09T05:36:41;14.90;99.90
31799;DHT22;18374;51.136;3.502;2022-09-09T05:39:09;15.00;99.90
31799;DHT22;18374;51.136;3.502;2022-09-09T05:41:39;14.90;99.90
31799;DHT22;18374;51.136;3.502;2022-09-09T05:44:08;15.00;99.90
31799;DHT22;18374;51.136;3.502;2022-09-09T05:46:39;15.00;99.90
31799;DHT22;18374;51.136;3.502;2022-09-09T05:49:07;15.00;99.90
31799;DHT22;18374;51.136;3.502;2022-09-09T05:51:36;15.00;99.90
31799;DHT22;18374;51.136;3.502;2022-09-09T05:54:10;15.00;99.90
31799;DHT22;18374;51.136;3.502;2022-09-09T05:56:42;15.00;99.90
31799;DHT22;18374;51.136;3.502;2022-09-09T05:59:13;15.00;99.90
31799;DHT22;18374;51.136;3.502;2022-09-09T06:01:42;15.00;99.90
31799;DHT22;18374;51.136;3.502;2022-09-09T06:04:18;15.00;99.90
31799;DHT22;18374;51.136;3.502;2022-09-09T06:06:52;15.00;99.90
31799;DHT22;18374;51.136;3.502;2022-09-09T06:09:22;15.00;99.90
31799;DHT22;18374;51.136;3.502;2022-09-09T06:11:50;15.10;99.90
31799;DHT22;18374;51.136;3.502;2022-09-09T06:14:19;15.10;99.90
31799;DHT22;18374;51.136;3.502;2022-09-09T06:16:49;15.10;99.90
31799;DHT22;18374;51.136;3.502;2022-09-09T06:19:20;15.10;99.90
31799;DHT22;18374;51.136;3.502;2022-09-09T06:21:48;15.20;99.90
31799;DHT22;18374;51.136;3.502;2022-09-09T06:24:17;15.20;99.90
31799;DHT22;18374;51.136;3.502;2022-09-09T06:26:46;15.20;99.90
31799;DHT22;18374;51.136;3.502;2022-09-09T06:29:21;15.20;99.90
31799;DHT22;18374;51.136;3.502;2022-09-09T06:31:51;15.30;99.90
31799;DHT22;18374;51.136;3.502;2022-09-09T06:34:23;15.30;99.90
31799;DHT22;18374;51.136;3.502;2022-09-09T06:36:55;15.30;99.90
31799;DHT22;18374;51.136;3.502;2022-09-09T06:39:27;15.30;99.90
31799;DHT22;18374;51.136;3.502;2022-09-09T06:41:55;15.30;99.90
31799;DHT22;18374;51.136;3.502;2022-09-09T06:44:51;15.30;99.90
31799;DHT22;18374;51.136;3.502;2022-09-09T06:47:36;15.30;99.90
31799;DHT22;18374;51.136;3.502;2022-09-09T06:50:05;15.30;99.90
31799;DHT22;18374;51.136;3.502;2022-09-09T06:52:35;15.40;99.90
31799;DHT22;18374;51.136;3.502;2022-09-09T06:55:04;15.40;99.90
31799;DHT22;18374;51.136;3.502;2022-09-09T06:57:33;15.40;99.90
31799;DHT22;18374;51.136;3.502;2022-09-09T07:00:08;15.50;99.90
31799;DHT22;18374;51.136;3.502;2022-09-09T07:02:36;15.60;99.90
31799;DHT22;18374;51.136;3.502;2022-09-09T07:05:08;15.60;99.90
31799;DHT22;18374;51.136;3.502;2022-09-09T07:07:40;15.60;99.90
31799;DHT22;18374;51.136;3.502;2022-09-09T07:10:13;15.60;99.90
31799;DHT22;18374;51.136;3.502;2022-09-09T07:12:40;15.50;99.90
31799;DHT22;18374;51.136;3.502;2022-09-09T07:15:10;15.50;99.90
31799;DHT22;18374;51.136;3.502;2022-09-09T07:17:42;15.60;99.90
31799;DHT22;18374;51.136;3.502;2022-09-09T07:20:11;15.50;99.90
31799;DHT22;18374;51.136;3.502;2022-09-09T07:22:42;15.50;99.90
31799;DHT22;18374;51.136;3.502;2022-09-09T07:25:12;15.50;99.90
31799;DHT22;18374;51.136;3.502;2022-09-09T07:27:41;15.60;99.90
31799;DHT22;18374;51.136;3.502;2022-09-09T07:30:10;15.60;99.90
31799;DHT22;18374;51.136;3.502;2022-09-09T07:32:44;15.60;99.90
31799;DHT22;18374;51.136;3.502;2022-09-09T07:35:12;15.50;99.90
31799;DHT22;18374;51.136;3.502;2022-09-09T07:37:39;15.50;99.90
31799;DHT22;18374;51.136;3.502;2022-09-09T07:40:08;15.50;99.90
31799;DHT22;18374;51.136;3.502;2022-09-09T07:42:38;15.50;99.90
31799;DHT22;18374;51.136;3.502;2022-09-09T07:45:06;15.50;99.90
31799;DHT22;18374;51.136;3.502;2022-09-09T07:47:34;15.50;99.90
31799;DHT22;18374;51.136;3.502;2022-09-09T07:50:03;15.50;99.90
31799;DHT22;18374;51.136;3.502;2022-09-09T07:52:36;15.50;99.90
31799;DHT22;18374;51.136;3.502;2022-09-09T07:55:07;15.50;99.90
31799;DHT22;18374;51.136;3.502;2022-09-09T07:57:37;15.50;99.90
31799;DHT22;18374;51.136;3.502;2022-09-09T08:00:05;15.50;99.90
31799;DHT22;18374;51.136;3.502;2022-09-09T08:02:41;15.40;99.90
31799;DHT22;18374;51.136;3.502;2022-09-09T08:05:10;15.50;99.90
31799;DHT22;18374;51.136;3.502;2022-09-09T08:07:39;15.50;99.90
31799;DHT22;18374;51.136;3.502;2022-09-09T08:10:07;15.50;99.90
31799;DHT22;18374;51.136;3.502;2022-09-09T08:12:37;15.50;99.90
31799;DHT22;18374;51.136;3.502;2022-09-09T08:15:11;15.50;99.90
31799;DHT22;18374;51.136;3.502;2022-09-09T08:17:40;15.40;99.90
31799;DHT22;18374;51.136;3.502;2022-09-09T08:20:08;15.40;99.90
31799;DHT22;18374;51.136;3.502;2022-09-09T08:22:36;15.50;99.90
31799;DHT22;18374;51.136;3.502;2022-09-09T08:25:05;15.50;99.90
31799;DHT22;18374;51.136;3.502;2022-09-09T08:27:36;15.50;99.90
31799;DHT22;18374;51.136;3.502;2022-09-09T08:30:05;15.50;99.90
31799;DHT22;18374;51.136;3.502;2022-09-09T08:32:33;15.50;99.90
31799;DHT22;18374;51.136;3.502;2022-09-09T08:35:02;15.50;99.90
31799;DHT22;18374;51.136;3.502;2022-09-09T08:37:34;15.60;99.90
31799;DHT22;18374;51.136;3.502;2022-09-09T08:40:02;15.60;99.90
31799;DHT22;18374;51.136;3.502;2022-09-09T08:42:37;15.60;99.90
31799;DHT22;18374;51.136;3.502;2022-09-09T08:51:05;15.70;99.90
31799;DHT22;18374;51.136;3.502;2022-09-09T08:53:49;15.80;99.90
31799;DHT22;18374;51.136;3.502;2022-09-09T08:56:24;15.90;99.90
31799;DHT22;18374;51.136;3.502;2022-09-09T08:58:56;16.00;99.90
31799;DHT22;18374;51.136;3.502;2022-09-09T09:02:06;16.10;99.90
31799;DHT22;18374;51.136;3.502;2022-09-09T09:08:32;16.30;99.90
31799;DHT22;18374;51.136;3.502;2022-09-09T09:11:02;16.40;99.90
31799;DHT22;18374;51.136;3.502;2022-09-09T09:16:17;16.60;99.90
31799;DHT22;18374;51.136;3.502;2022-09-09T09:18:51;16.60;99.90
31799;DHT22;18374;51.136;3.502;2022-09-09T09:24:09;16.50;99.90
31799;DHT22;18374;51.136;3.502;2022-09-09T09:27:31;16.50;99.90
31799;DHT22;18374;51.136;3.502;2022-09-09T09:30:28;16.70;99.90
31799;DHT22;18374;51.136;3.502;2022-09-09T09:34:09;16.80;99.90
31799;DHT22;18374;51.136;3.502;2022-09-09T09:36:20;16.90;99.90
31799;DHT22;18374;51.136;3.502;2022-09-09T09:39:01;16.90;99.90
31799;DHT22;18374;51.136;3.502;2022-09-09T09:41:51;16.90;99.90
31799;DHT22;18374;51.136;3.502;2022-09-09T09:44:28;16.80;99.90
31799;DHT22;18374;51.136;3.502;2022-09-09T09:49:52;16.70;99.90
31799;DHT22;18374;51.136;3.502;2022-09-09T09:52:25;16.60;99.90
31799;DHT22;18374;51.136;3.502;2022-09-09T09:54:58;16.70;99.90
31799;DHT22;18374;51.136;3.502;2022-09-09T09:57:34;16.70;99.90
31799;DHT22;18374;51.136;3.502;2022-09-09T10:00:22;16.70;99.90
31799;DHT22;18374;51.136;3.502;2022-09-09T10:03:18;16.80;99.90
31799;DHT22;18374;51.136;3.502;2022-09-09T10:05:52;16.90;99.90
31799;DHT22;18374;51.136;3.502;2022-09-09T10:08:23;16.90;99.90
31799;DHT22;18374;51.136;3.502;2022-09-09T10:11:21;16.90;99.90
31799;DHT22;18374;51.136;3.502;2022-09-09T10:20:34;17.30;99.90
31799;DHT22;18374;51.136;3.502;2022-09-09T10:29:36;17.50;99.90
31799;DHT22;18374;51.136;3.502;2022-09-09T10:36:12;17.70;99.90
31799;DHT22;18374;51.136;3.502;2022-09-09T10:38:48;17.60;99.90
31799;DHT22;18374;51.136;3.502;2022-09-09T10:41:57;17.50;99.90
31799;DHT22;18374;51.136;3.502;2022-09-09T10:47:33;17.50;99.90
31799;DHT22;18374;51.136;3.502;2022-09-09T10:56:26;17.60;99.90
31799;DHT22;18374;51.136;3.502;2022-09-09T10:59:37;17.70;99.90
31799;DHT22;18374;51.136;3.502;2022-09-09T11:04:58;17.80;99.90
31799;DHT22;18374;51.136;3.502;2022-09-09T11:07:56;17.90;99.90
31799;DHT22;18374;51.136;3.502;2022-09-09T11:10:36;18.00;99.90
31799;DHT22;18374;51.136;3.502;2022-09-09T11:13:20;18.10;99.90
31799;DHT22;18374;51.136;3.502;2022-09-09T11:15:57;18.20;99.90
31799;DHT22;18374;51.136;3.502;2022-09-09T11:18:29;18.10;99.90
31799;DHT22;18374;51.136;3.502;2022-09-09T11:21:01;18.20;99.90
31799;DHT22;18374;51.136;3.502;2022-09-09T11:23:40;18.20;99.90
31799;DHT22;18374;51.136;3.502;2022-09-09T11:26:37;18.20;99.90
31799;DHT22;18374;51.136;3.502;2022-09-09T11:29:36;18.20;99.90
31799;DHT22;18374;51.136;3.502;2022-09-09T11:38:26;17.90;99.90
31799;DHT22;18374;51.136;3.502;2022-09-09T11:40:59;17.70;99.90
31799;DHT22;18374;51.136;3.502;2022-09-09T11:43:39;17.70;99.90
31799;DHT22;18374;51.136;3.502;2022-09-09T11:46:09;17.70;99.90
31799;DHT22;18374;51.136;3.502;2022-09-09T11:48:46;17.70;99.90
31799;DHT22;18374;51.136;3.502;2022-09-09T11:51:27;17.70;99.90
31799;DHT22;18374;51.136;3.502;2022-09-09T11:53:59;17.70;99.90
31799;DHT22;18374;51.136;3.502;2022-09-09T11:59:28;17.90;99.90
31799;DHT22;18374;51.136;3.502;2022-09-09T12:02:10;18.00;99.90
31799;DHT22;18374;51.136;3.502;2022-09-09T12:05:06;18.10;99.90
31799;DHT22;18374;51.136;3.502;2022-09-09T12:07:38;18.00;99.90
31799;DHT22;18374;51.136;3.502;2022-09-09T12:10:29;18.10;99.90
31799;DHT22;18374;51.136;3.502;2022-09-09T12:13:17;18.10;99.90
31799;DHT22;18374;51.136;3.502;2022-09-09T12:15:57;17.90;99.90
31799;DHT22;18374;51.136;3.502;2022-09-09T12:18:33;17.80;99.90
31799;DHT22;18374;51.136;3.502;2022-09-09T12:21:37;17.80;99.90
31799;DHT22;18374;51.136;3.502;2022-09-09T12:24:35;17.70;99.90
31799;DHT22;18374;51.136;3.502;2022-09-09T12:30:08;17.60;99.90
31799;DHT22;18374;51.136;3.502;2022-09-09T12:33:22;17.60;99.90
31799;DHT22;18374;51.136;3.502;2022-09-09T12:35:58;17.60;99.90
31799;DHT22;18374;51.136;3.502;2022-09-09T12:38:38;17.50;99.90
31799;DHT22;18374;51.136;3.502;2022-09-09T12:41:26;17.50;99.90
31799;DHT22;18374;51.136;3.502;2022-09-09T12:44:05;17.50;99.90
31799;DHT22;18374;51.136;3.502;2022-09-09T12:46:36;17.50;99.90
31799;DHT22;18374;51.136;3.502;2022-09-09T12:49:38;17.50;99.90
31799;DHT22;18374;51.136;3.502;2022-09-09T12:52:35;17.50;99.90
31799;DHT22;18374;51.136;3.502;2022-09-09T12:55:06;17.50;99.90
31799;DHT22;18374;51.136;3.502;2022-09-09T12:57:38;17.70;99.90
31799;DHT22;18374;51.136;3.502;2022-09-09T13:00:23;17.90;99.90
31799;DHT22;18374;51.136;3.502;2022-09-09T13:02:54;17.90;99.90
31799;DHT22;18374;51.136;3.502;2022-09-09T13:05:28;17.80;99.90
31799;DHT22;18374;51.136;3.502;2022-09-09T13:08:20;17.80;99.90
31799;DHT22;18374;51.136;3.502;2022-09-09T13:10:54;17.70;99.90
31799;DHT22;18374;51.136;3.502;2022-09-09T13:13:35;17.80;99.90
31799;DHT22;18374;51.136;3.502;2022-09-09T13:16:16;18.00;99.90
31799;DHT22;18374;51.136;3.502;2022-09-09T13:19:14;18.20;99.90
31799;DHT22;18374;51.136;3.502;2022-09-09T13:21:43;18.20;99.90
31799;DHT22;18374;51.136;3.502;2022-09-09T13:24:33;18.20;99.90
31799;DHT22;18374;51.136;3.502;2022-09-09T13:27:04;18.10;99.90
31799;DHT22;18374;51.136;3.502;2022-09-09T13:29:52;18.00;99.90
31799;DHT22;18374;51.136;3.502;2022-09-09T13:32:25;17.80;99.90
31799;DHT22;18374;51.136;3.502;2022-09-09T13:35:00;17.60;99.90
31799;DHT22;18374;51.136;3.502;2022-09-09T13:37:36;17.50;99.90
31799;DHT22;18374;51.136;3.502;2022-09-09T13:40:06;17.30;99.90
31799;DHT22;18374;51.136;3.502;2022-09-09T13:42:39;17.30;99.90
31799;DHT22;18374;51.136;3.502;2022-09-09T13:45:21;17.20;99.90
31799;DHT22;18374;51.136;3.502;2022-09-09T13:47:50;17.10;99.90
31799;DHT22;18374;51.136;3.502;2022-09-09T13:50:25;17.10;99.90
31799;DHT22;18374;51.136;3.502;2022-09-09T13:52:58;17.30;99.90
31799;DHT22;18374;51.136;3.502;2022-09-09T13:55:27;17.50;99.90
31799;DHT22;18374;51.136;3.502;2022-09-09T13:58:01;17.80;99.90
31799;DHT22;18374;51.136;3.502;2022-09-09T14:00:32;18.00;99.90
31799;DHT22;18374;51.136;3.502;2022-09-09T14:03:01;18.10;99.90
31799;DHT22;18374;51.136;3.502;2022-09-09T14:05:40;18.20;99.90
31799;DHT22;18374;51.136;3.502;2022-09-09T14:08:22;18.10;99.90
31799;DHT22;18374;51.136;3.502;2022-09-09T14:10:52;17.90;99.90
31799;DHT22;18374;51.136;3.502;2022-09-09T14:13:22;17.70;99.90
31799;DHT22;18374;51.136;3.502;2022-09-09T14:15:50;17.50;99.90
31799;DHT22;18374;51.136;3.502;2022-09-09T14:18:18;17.40;99.90
31799;DHT22;18374;51.136;3.502;2022-09-09T14:20:45;17.30;99.90
31799;DHT22;18374;51.136;3.502;2022-09-09T14:23:13;17.20;99.90
31799;DHT22;18374;51.136;3.502;2022-09-09T14:25:43;17.10;99.90
31799;DHT22;18374;51.136;3.502;2022-09-09T14:28:12;17.00;99.90
31799;DHT22;18374;51.136;3.502;2022-09-09T14:30:42;17.00;99.90
31799;DHT22;18374;51.136;3.502;2022-09-09T14:33:14;17.00;99.90
31799;DHT22;18374;51.136;3.502;2022-09-09T14:35:43;17.00;99.90
31799;DHT22;18374;51.136;3.502;2022-09-09T14:38:11;16.90;99.90
31799;DHT22;18374;51.136;3.502;2022-09-09T14:40:45;16.90;99.90
31799;DHT22;18374;51.136;3.502;2022-09-09T14:43:14;16.90;99.90
31799;DHT22;18374;51.136;3.502;2022-09-09T14:45:42;16.90;99.90
31799;DHT22;18374;51.136;3.502;2022-09-09T14:48:10;17.00;99.90
31799;DHT22;18374;51.136;3.502;2022-09-09T14:50:38;17.10;99.90
31799;DHT22;18374;51.136;3.502;2022-09-09T14:53:08;17.10;99.90
31799;DHT22;18374;51.136;3.502;2022-09-09T14:55:37;17.10;99.90
31799;DHT22;18374;51.136;3.502;2022-09-09T14:58:06;17.20;99.90
31799;DHT22;18374;51.136;3.502;2022-09-09T15:00:34;17.20;99.90
31799;DHT22;18374;51.136;3.502;2022-09-09T15:03:01;17.20;99.90
31799;DHT22;18374;51.136;3.502;2022-09-09T15:05:29;17.30;99.90
31799;DHT22;18374;51.136;3.502;2022-09-09T15:08:01;17.30;99.90
31799;DHT22;18374;51.136;3.502;2022-09-09T15:10:30;17.30;99.90
31799;DHT22;18374;51.136;3.502;2022-09-09T15:12:58;17.30;99.90
31799;DHT22;18374;51.136;3.502;2022-09-09T15:15:26;17.30;99.90
31799;DHT22;18374;51.136;3.502;2022-09-09T15:17:55;17.30;99.90
31799;DHT22;18374;51.136;3.502;2022-09-09T15:20:23;17.30;99.90
31799;DHT22;18374;51.136;3.502;2022-09-09T15:22:51;17.20;99.90
31799;DHT22;18374;51.136;3.502;2022-09-09T15:25:19;17.10;99.90
31799;DHT22;18374;51.136;3.502;2022-09-09T15:27:47;17.00;99.90
31799;DHT22;18374;51.136;3.502;2022-09-09T15:30:15;17.00;99.90
31799;DHT22;18374;51.136;3.502;2022-09-09T15:32:42;16.90;99.90
31799;DHT22;18374;51.136;3.502;2022-09-09T15:35:10;16.90;99.90
31799;DHT22;18374;51.136;3.502;2022-09-09T15:37:38;16.80;99.90
31799;DHT22;18374;51.136;3.502;2022-09-09T15:40:06;16.80;99.90
31799;DHT22;18374;51.136;3.502;2022-09-09T15:42:34;16.90;99.90
31799;DHT22;18374;51.136;3.502;2022-09-09T15:45:03;17.10;99.90
31799;DHT22;18374;51.136;3.502;2022-09-09T15:47:32;17.20;99.90
31799;DHT22;18374;51.136;3.502;2022-09-09T15:50:00;17.30;99.90
31799;DHT22;18374;51.136;3.502;2022-09-09T15:52:28;17.30;99.90
31799;DHT22;18374;51.136;3.502;2022-09-09T15:54:56;17.40;99.90
31799;DHT22;18374;51.136;3.502;2022-09-09T15:57:24;17.30;99.90
31799;DHT22;18374;51.136;3.502;2022-09-09T15:59:51;17.30;99.90
31799;DHT22;18374;51.136;3.502;2022-09-09T16:02:19;17.30;99.90
31799;DHT22;18374;51.136;3.502;2022-09-09T16:04:46;17.30;99.90
31799;DHT22;18374;51.136;3.502;2022-09-09T16:07:14;17.30;99.90
31799;DHT22;18374;51.136;3.502;2022-09-09T16:09:42;17.20;99.90
31799;DHT22;18374;51.136;3.502;2022-09-09T16:12:10;17.10;99.90
31799;DHT22;18374;51.136;3.502;2022-09-09T16:14:40;17.10;99.90
31799;DHT22;18374;51.136;3.502;2022-09-09T16:17:08;17.00;99.90
31799;DHT22;18374;51.136;3.502;2022-09-09T16:19:36;17.00;99.90
31799;DHT22;18374;51.136;3.502;2022-09-09T16:22:04;16.90;99.90
31799;DHT22;18374;51.136;3.502;2022-09-09T16:24:33;16.90;99.90
31799;DHT22;18374;51.136;3.502;2022-09-09T16:27:01;16.80;99.90
31799;DHT22;18374;51.136;3.502;2022-09-09T16:29:29;16.60;99.90
31799;DHT22;18374;51.136;3.502;2022-09-09T16:31:56;16.50;99.90
31799;DHT22;18374;51.136;3.502;2022-09-09T16:34:39;16.30;99.90
31799;DHT22;18374;51.136;3.502;2022-09-09T16:37:07;16.20;99.90
31799;DHT22;18374;51.136;3.502;2022-09-09T16:39:35;16.20;99.90
31799;DHT22;18374;51.136;3.502;2022-09-09T16:42:03;16.30;99.90
31799;DHT22;18374;51.136;3.502;2022-09-09T16:44:33;16.30;99.90
31799;DHT22;18374;51.136;3.502;2022-09-09T16:47:01;16.40;99.90
31799;DHT22;18374;51.136;3.502;2022-09-09T16:49:29;16.40;99.90
31799;DHT22;18374;51.136;3.502;2022-09-09T16:51:58;16.50;99.90
31799;DHT22;18374;51.136;3.502;2022-09-09T16:54:26;16.50;99.90
31799;DHT22;18374;51.136;3.502;2022-09-09T16:56:54;16.50;99.90
31799;DHT22;18374;51.136;3.502;2022-09-09T16:59:22;16.60;99.90
31799;DHT22;18374;51.136;3.502;2022-09-09T17:01:51;16.70;99.90
31799;DHT22;18374;51.136;3.502;2022-09-09T17:04:21;16.80;99.90
31799;DHT22;18374;51.136;3.502;2022-09-09T17:06:53;16.90;99.90
31799;DHT22;18374;51.136;3.502;2022-09-09T17:09:22;16.90;99.90
31799;DHT22;18374;51.136;3.502;2022-09-09T17:11:50;17.00;99.90
31799;DHT22;18374;51.136;3.502;2022-09-09T17:14:22;17.00;99.90
31799;DHT22;18374;51.136;3.502;2022-09-09T17:16:51;17.00;99.90
31799;DHT22;18374;51.136;3.502;2022-09-09T17:19:18;17.10;99.90
31799;DHT22;18374;51.136;3.502;2022-09-09T17:21:46;17.00;99.90
31799;DHT22;18374;51.136;3.502;2022-09-09T17:24:36;17.10;99.90
31799;DHT22;18374;51.136;3.502;2022-09-09T17:27:06;17.10;99.90
31799;DHT22;18374;51.136;3.502;2022-09-09T17:29:34;17.10;99.90
31799;DHT22;18374;51.136;3.502;2022-09-09T17:32:03;17.00;99.90
31799;DHT22;18374;51.136;3.502;2022-09-09T17:34:33;17.00;99.90
31799;DHT22;18374;51.136;3.502;2022-09-09T17:37:01;17.00;99.90
31799;DHT22;18374;51.136;3.502;2022-09-09T17:39:29;17.00;99.90
31799;DHT22;18374;51.136;3.502;2022-09-09T17:41:56;16.90;99.90
31799;DHT22;18374;51.136;3.502;2022-09-09T17:44:24;16.80;99.90
31799;DHT22;18374;51.136;3.502;2022-09-09T17:46:52;16.80;99.90
31799;DHT22;18374;51.136;3.502;2022-09-09T17:49:19;16.70;99.90